Observations for SOUTHEND-ON-SEA, United Kingdom (EGMC)

EGMC 200620Z 35004KT 8000 NSC 09/06 Q1030   
EGMC 200550Z 35006KT 8000 NSC 08/05 Q1030   
EGMC 200520Z 35005KT 7000 NSC 09/06 Q1030   
EGMC 200450Z 35007KT 7000 NSC 08/05 Q1030   
EGMC 200420Z 34006KT 7000 NSC 08/05 Q1030   
EGMC 200250Z 32003KT 7000 NSC 09/05 Q1030   
EGMC 200120Z 33003KT 7000 NSC 09/05 Q1030   
EGMC 192350Z 35004KT 8000 NSC 08/05 Q1031   
EGMC 192250Z 35003KT CAVOK 09/05 Q1031  
EGMC 192220Z 03002KT CAVOK 10/05 Q1031  
EGMC 192150Z 35004KT CAVOK 10/05 Q1030  
EGMC 192120Z 34004KT CAVOK 08/03 Q1030  
EGMC 192050Z 01003KT CAVOK 10/05 Q1030  
EGMC 192020Z 01002KT CAVOK 10/06 Q1030  
EGMC 191950Z 00000KT CAVOK 10/05 Q1030  
EGMC 191920Z VRB03KT CAVOK 13/06 Q1030  
EGMC 191850Z 05006KT CAVOK 14/05 Q1029  
EGMC 191820Z 04006KT CAVOK 15/05 Q1029  
EGMC 191750Z 02007KT CAVOK 16/06 Q1029  
EGMC 191720Z 03005KT CAVOK 18/07 Q1029  
EGMC 191650Z 05007KT 360V100 CAVOK 17/06 Q1029  
EGMC 191620Z 05008KT 010V110 CAVOK 18/06 Q1029  
EGMC 191550Z 07008KT CAVOK 18/07 Q1029  
EGMC 191520Z 06008KT CAVOK 18/05 Q1029  
EGMC 191450Z 06009KT CAVOK 19/06 Q1029  
EGMC 191420Z 07007KT CAVOK 19/08 Q1029  
EGMC 191350Z 04009KT CAVOK 18/06 Q1029  
EGMC 191320Z 05007KT 030V110 CAVOK 18/09 Q1029  
EGMC 191250Z 08007KT 040V130 CAVOK 17/09 Q1029  
EGMC 191220Z 07008KT 030V130 CAVOK 18/09 Q1028  
EGMC 191150Z 06007KT 020V090 CAVOK 18/08 Q1028  
EGMC 191120Z 05010KT CAVOK 17/07 Q1028  
EGMC 191050Z 05008KT 020V120 CAVOK 17/08 Q1029  
EGMC 191020Z 06008KT 030V110 CAVOK 17/09 Q1029  
EGMC 190950Z 07008KT CAVOK 16/09 Q1028  
EGMC 190920Z 06008KT CAVOK 16/09 Q1028  
EGMC 190850Z 05011KT CAVOK 15/08 Q1028  
EGMC 190820Z 06009KT CAVOK 14/08 Q1028  
EGMC 190750Z 05009KT CAVOK 13/07 Q1028  
EGMC 190720Z 03008KT CAVOK 11/07 Q1028  
EGMC 190650Z 03007KT 9000 NSC 11/07 Q1028   
EGMC 190620Z 01006KT 9000 NSC 08/05 Q1027   
EGMC 190550Z 01004KT 9000 NSC 08/05 Q1027